Olivet, Michigan
Current Conditions -  °F | °C
As of 9:54 AM on Friday 31 Oct 2014 (Local Time) from KFPK Reporting Station
Drizzle Drizzle  
Wind Chill: 38°   Ceiling: 1000
Heat Index: 41°   Visibility: 7mi
Dew Point: 38°   Wind: 5mph
Humidity: 89%   Direction: 300°WNW
Pressure: 29.9"   Gusts: NA
Location:  42.44°N, 84.92°W
Report Text: KFPK 311354Z AUTO 30004KT 7SM -DZ BKN010 OVC015 05/03 A2990 RMK AO2 T00500034
Loading
Personal Weather Stations






























Interactive Weather Map
Tropical Storm Tracking
New forecast layout! Learn more

10-Day Weather Forecast

Advertisements
Track Severe Weather on mobile